sensor_id;sensor_type;location;lat;lon;timestamp;pressure;altitude;pressure_sealevel;temperature
54746;BMP180;40640;48.130;11.356;2022-12-07T00:00:41;95467.00;;;5.80
54746;BMP180;40640;48.130;11.356;2022-12-07T00:04:44;95458.00;;;5.80
54746;BMP180;40640;48.130;11.356;2022-12-07T00:08:47;95451.00;;;5.80
54746;BMP180;40640;48.130;11.356;2022-12-07T00:12:51;95452.00;;;5.80
54746;BMP180;40640;48.130;11.356;2022-12-07T00:16:54;95451.00;;;5.80
54746;BMP180;40640;48.130;11.356;2022-12-07T00:21:00;95447.00;;;5.70
54746;BMP180;40640;48.130;11.356;2022-12-07T00:25:04;95443.00;;;5.80
54746;BMP180;40640;48.130;11.356;2022-12-07T00:29:13;95447.00;;;5.80
54746;BMP180;40640;48.130;11.356;2022-12-07T00:33:17;95434.00;;;5.80
54746;BMP180;40640;48.130;11.356;2022-12-07T00:37:19;95434.00;;;5.70
54746;BMP180;40640;48.130;11.356;2022-12-07T00:41:23;95441.00;;;5.70
54746;BMP180;40640;48.130;11.356;2022-12-07T00:45:28;95439.00;;;5.70
54746;BMP180;40640;48.130;11.356;2022-12-07T00:49:31;95437.00;;;5.70
54746;BMP180;40640;48.130;11.356;2022-12-07T00:53:34;95443.00;;;5.60
54746;BMP180;40640;48.130;11.356;2022-12-07T00:57:42;95441.00;;;5.60
54746;BMP180;40640;48.130;11.356;2022-12-07T01:01:46;95447.00;;;5.60
54746;BMP180;40640;48.130;11.356;2022-12-07T01:05:50;95440.00;;;5.60
54746;BMP180;40640;48.130;11.356;2022-12-07T01:09:53;95434.00;;;5.60
54746;BMP180;40640;48.130;11.356;2022-12-07T01:13:57;95429.00;;;5.60
54746;BMP180;40640;48.130;11.356;2022-12-07T01:18:02;95439.00;;;5.50
54746;BMP180;40640;48.130;11.356;2022-12-07T01:22:04;95439.00;;;5.60
54746;BMP180;40640;48.130;11.356;2022-12-07T01:26:09;95435.00;;;5.50
54746;BMP180;40640;48.130;11.356;2022-12-07T01:30:13;95441.00;;;5.50
54746;BMP180;40640;48.130;11.356;2022-12-07T01:34:17;95438.00;;;5.50
54746;BMP180;40640;48.130;11.356;2022-12-07T01:38:20;95437.00;;;5.50
54746;BMP180;40640;48.130;11.356;2022-12-07T01:42:23;95441.00;;;5.50
54746;BMP180;40640;48.130;11.356;2022-12-07T01:46:25;95439.00;;;5.50
54746;BMP180;40640;48.130;11.356;2022-12-07T01:50:30;95434.00;;;5.50
54746;BMP180;40640;48.130;11.356;2022-12-07T01:54:34;95434.00;;;5.50
54746;BMP180;40640;48.130;11.356;2022-12-07T01:58:37;95422.00;;;5.50
54746;BMP180;40640;48.130;11.356;2022-12-07T02:02:44;95434.00;;;5.40
54746;BMP180;40640;48.130;11.356;2022-12-07T02:06:50;95434.00;;;5.40
54746;BMP180;40640;48.130;11.356;2022-12-07T02:10:53;95429.00;;;5.50
54746;BMP180;40640;48.130;11.356;2022-12-07T02:14:59;95427.00;;;5.50
54746;BMP180;40640;48.130;11.356;2022-12-07T02:23:59;95418.00;;;5.50
54746;BMP180;40640;48.130;11.356;2022-12-07T02:28:08;95416.00;;;5.30
54746;BMP180;40640;48.130;11.356;2022-12-07T02:32:21;95411.00;;;5.30
54746;BMP180;40640;48.130;11.356;2022-12-07T02:36:28;95413.00;;;5.40
54746;BMP180;40640;48.130;11.356;2022-12-07T02:40:37;95417.00;;;5.50
54746;BMP180;40640;48.130;11.356;2022-12-07T02:44:41;95409.00;;;5.40
54746;BMP180;40640;48.130;11.356;2022-12-07T02:48:46;95409.00;;;5.20
54746;BMP180;40640;48.130;11.356;2022-12-07T02:52:50;95409.00;;;5.20
54746;BMP180;40640;48.130;11.356;2022-12-07T02:56:57;95411.00;;;5.20
54746;BMP180;40640;48.130;11.356;2022-12-07T03:01:08;95410.00;;;5.40
54746;BMP180;40640;48.130;11.356;2022-12-07T03:09:51;95406.00;;;5.20
54746;BMP180;40640;48.130;11.356;2022-12-07T03:13:59;95406.00;;;5.10
54746;BMP180;40640;48.130;11.356;2022-12-07T03:18:05;95406.00;;;5.20
54746;BMP180;40640;48.130;11.356;2022-12-07T03:22:13;95412.00;;;5.20
54746;BMP180;40640;48.130;11.356;2022-12-07T03:26:18;95412.00;;;5.20
54746;BMP180;40640;48.130;11.356;2022-12-07T03:30:23;95409.00;;;5.20
54746;BMP180;40640;48.130;11.356;2022-12-07T03:34:30;95417.00;;;5.20
54746;BMP180;40640;48.130;11.356;2022-12-07T03:38:38;95403.00;;;5.10
54746;BMP180;40640;48.130;11.356;2022-12-07T03:42:43;95401.00;;;5.20
54746;BMP180;40640;48.130;11.356;2022-12-07T03:46:55;95407.00;;;5.20
54746;BMP180;40640;48.130;11.356;2022-12-07T03:51:07;95397.00;;;5.10
54746;BMP180;40640;48.130;11.356;2022-12-07T03:55:16;95398.00;;;5.10
54746;BMP180;40640;48.130;11.356;2022-12-07T03:59:20;95401.00;;;5.20
54746;BMP180;40640;48.130;11.356;2022-12-07T04:03:24;95393.00;;;5.10
54746;BMP180;40640;48.130;11.356;2022-12-07T04:07:26;95395.00;;;5.10
54746;BMP180;40640;48.130;11.356;2022-12-07T04:11:31;95399.00;;;5.10
54746;BMP180;40640;48.130;11.356;2022-12-07T04:15:33;95396.00;;;5.10
54746;BMP180;40640;48.130;11.356;2022-12-07T04:19:36;95395.00;;;5.10
54746;BMP180;40640;48.130;11.356;2022-12-07T04:23:39;95405.00;;;5.00
54746;BMP180;40640;48.130;11.356;2022-12-07T04:27:43;95397.00;;;5.00
54746;BMP180;40640;48.130;11.356;2022-12-07T04:31:46;95405.00;;;5.00
54746;BMP180;40640;48.130;11.356;2022-12-07T04:35:49;95392.00;;;5.00
54746;BMP180;40640;48.130;11.356;2022-12-07T04:39:52;95401.00;;;5.00
54746;BMP180;40640;48.130;11.356;2022-12-07T04:43:57;95392.00;;;5.00
54746;BMP180;40640;48.130;11.356;2022-12-07T04:48:00;95398.00;;;5.00
54746;BMP180;40640;48.130;11.356;2022-12-07T04:52:03;95399.00;;;4.90
54746;BMP180;40640;48.130;11.356;2022-12-07T04:56:06;95393.00;;;4.90
54746;BMP180;40640;48.130;11.356;2022-12-07T05:00:12;95398.00;;;4.90
54746;BMP180;40640;48.130;11.356;2022-12-07T05:04:15;95394.00;;;4.90
54746;BMP180;40640;48.130;11.356;2022-12-07T05:08:19;95402.00;;;4.90
54746;BMP180;40640;48.130;11.356;2022-12-07T05:12:22;95399.00;;;4.90
54746;BMP180;40640;48.130;11.356;2022-12-07T05:16:26;95397.00;;;4.90
54746;BMP180;40640;48.130;11.356;2022-12-07T05:20:29;95404.00;;;4.90
54746;BMP180;40640;48.130;11.356;2022-12-07T05:24:32;95404.00;;;4.90
54746;BMP180;40640;48.130;11.356;2022-12-07T05:28:35;95403.00;;;4.90
54746;BMP180;40640;48.130;11.356;2022-12-07T05:32:39;95404.00;;;4.80
54746;BMP180;40640;48.130;11.356;2022-12-07T05:36:41;95406.00;;;4.90
54746;BMP180;40640;48.130;11.356;2022-12-07T05:40:44;95404.00;;;4.90
54746;BMP180;40640;48.130;11.356;2022-12-07T05:44:47;95400.00;;;4.90
54746;BMP180;40640;48.130;11.356;2022-12-07T05:48:51;95400.00;;;4.90
54746;BMP180;40640;48.130;11.356;2022-12-07T05:52:54;95392.00;;;4.90
54746;BMP180;40640;48.130;11.356;2022-12-07T05:56:57;95396.00;;;4.90
54746;BMP180;40640;48.130;11.356;2022-12-07T06:01:00;95398.00;;;4.90
54746;BMP180;40640;48.130;11.356;2022-12-07T06:05:05;95403.00;;;4.80
54746;BMP180;40640;48.130;11.356;2022-12-07T06:09:08;95399.00;;;4.80
54746;BMP180;40640;48.130;11.356;2022-12-07T06:13:11;95408.00;;;4.80
54746;BMP180;40640;48.130;11.356;2022-12-07T06:17:15;95401.00;;;4.90
54746;BMP180;40640;48.130;11.356;2022-12-07T06:21:19;95412.00;;;4.80
54746;BMP180;40640;48.130;11.356;2022-12-07T06:25:22;95402.00;;;4.80
54746;BMP180;40640;48.130;11.356;2022-12-07T06:29:24;95413.00;;;4.80
54746;BMP180;40640;48.130;11.356;2022-12-07T06:33:28;95411.00;;;4.70
54746;BMP180;40640;48.130;11.356;2022-12-07T06:37:32;95421.00;;;4.80
54746;BMP180;40640;48.130;11.356;2022-12-07T06:41:35;95426.00;;;5.00
54746;BMP180;40640;48.130;11.356;2022-12-07T06:45:38;95418.00;;;4.80
54746;BMP180;40640;48.130;11.356;2022-12-07T06:49:41;95413.00;;;4.60
54746;BMP180;40640;48.130;11.356;2022-12-07T06:53:45;95423.00;;;4.80
54746;BMP180;40640;48.130;11.356;2022-12-07T06:57:48;95427.00;;;4.60
54746;BMP180;40640;48.130;11.356;2022-12-07T07:01:51;95427.00;;;4.60
54746;BMP180;40640;48.130;11.356;2022-12-07T07:05:54;95420.00;;;4.70
54746;BMP180;40640;48.130;11.356;2022-12-07T07:09:58;95433.00;;;4.60
54746;BMP180;40640;48.130;11.356;2022-12-07T07:14:01;95420.00;;;4.70
54746;BMP180;40640;48.130;11.356;2022-12-07T07:18:04;95412.00;;;4.90
54746;BMP180;40640;48.130;11.356;2022-12-07T07:22:08;95422.00;;;4.70
54746;BMP180;40640;48.130;11.356;2022-12-07T07:26:12;95422.00;;;4.80
54746;BMP180;40640;48.130;11.356;2022-12-07T07:30:23;95429.00;;;4.70
54746;BMP180;40640;48.130;11.356;2022-12-07T07:34:26;95429.00;;;4.80
54746;BMP180;40640;48.130;11.356;2022-12-07T07:38:29;95435.00;;;4.80
54746;BMP180;40640;48.130;11.356;2022-12-07T07:42:33;95429.00;;;4.80
54746;BMP180;40640;48.130;11.356;2022-12-07T07:46:36;95438.00;;;4.80
54746;BMP180;40640;48.130;11.356;2022-12-07T07:50:38;95437.00;;;4.80
54746;BMP180;40640;48.130;11.356;2022-12-07T07:54:41;95432.00;;;4.70
54746;BMP180;40640;48.130;11.356;2022-12-07T07:58:45;95450.00;;;4.80
54746;BMP180;40640;48.130;11.356;2022-12-07T08:02:48;95450.00;;;5.10
54746;BMP180;40640;48.130;11.356;2022-12-07T08:06:51;95450.00;;;4.90
54746;BMP180;40640;48.130;11.356;2022-12-07T08:10:54;95447.00;;;5.00
54746;BMP180;40640;48.130;11.356;2022-12-07T08:14:58;95438.00;;;5.00
54746;BMP180;40640;48.130;11.356;2022-12-07T08:19:01;95445.00;;;5.00
54746;BMP180;40640;48.130;11.356;2022-12-07T08:23:04;95437.00;;;5.00
54746;BMP180;40640;48.130;11.356;2022-12-07T08:27:06;95442.00;;;5.20
54746;BMP180;40640;48.130;11.356;2022-12-07T08:31:12;95442.00;;;5.10
54746;BMP180;40640;48.130;11.356;2022-12-07T08:35:15;95447.00;;;5.00
54746;BMP180;40640;48.130;11.356;2022-12-07T08:39:18;95440.00;;;5.20
54746;BMP180;40640;48.130;11.356;2022-12-07T08:43:34;95439.00;;;5.20
54746;BMP180;40640;48.130;11.356;2022-12-07T08:47:42;95448.00;;;5.30
54746;BMP180;40640;48.130;11.356;2022-12-07T08:51:46;95443.00;;;5.20
54746;BMP180;40640;48.130;11.356;2022-12-07T08:55:49;95445.00;;;5.30
54746;BMP180;40640;48.130;11.356;2022-12-07T08:59:52;95444.00;;;5.40
54746;BMP180;40640;48.130;11.356;2022-12-07T09:03:56;95441.00;;;5.20
54746;BMP180;40640;48.130;11.356;2022-12-07T09:08:01;95440.00;;;5.50
54746;BMP180;40640;48.130;11.356;2022-12-07T09:12:04;95452.00;;;5.40
54746;BMP180;40640;48.130;11.356;2022-12-07T09:16:07;95436.00;;;5.50
54746;BMP180;40640;48.130;11.356;2022-12-07T09:20:12;95437.00;;;5.60
54746;BMP180;40640;48.130;11.356;2022-12-07T09:24:14;95437.00;;;5.60
54746;BMP180;40640;48.130;11.356;2022-12-07T09:28:17;95436.00;;;5.40
54746;BMP180;40640;48.130;11.356;2022-12-07T09:32:20;95442.00;;;5.50
54746;BMP180;40640;48.130;11.356;2022-12-07T09:36:25;95438.00;;;5.80
54746;BMP180;40640;48.130;11.356;2022-12-07T09:40:28;95447.00;;;6.10
54746;BMP180;40640;48.130;11.356;2022-12-07T09:44:32;95443.00;;;5.80
54746;BMP180;40640;48.130;11.356;2022-12-07T09:48:37;95443.00;;;6.00
54746;BMP180;40640;48.130;11.356;2022-12-07T09:52:42;95445.00;;;6.10
54746;BMP180;40640;48.130;11.356;2022-12-07T09:56:46;95435.00;;;6.30
54746;BMP180;40640;48.130;11.356;2022-12-07T10:00:49;95443.00;;;6.40
54746;BMP180;40640;48.130;11.356;2022-12-07T10:04:52;95437.00;;;6.60
54746;BMP180;40640;48.130;11.356;2022-12-07T10:08:57;95425.00;;;6.60
54746;BMP180;40640;48.130;11.356;2022-12-07T10:13:02;95426.00;;;6.70
54746;BMP180;40640;48.130;11.356;2022-12-07T10:17:28;95427.00;;;6.70
54746;BMP180;40640;48.130;11.356;2022-12-07T10:21:31;95427.00;;;7.00
54746;BMP180;40640;48.130;11.356;2022-12-07T10:25:37;95428.00;;;6.90
54746;BMP180;40640;48.130;11.356;2022-12-07T10:29:47;95420.00;;;7.10
54746;BMP180;40640;48.130;11.356;2022-12-07T10:33:52;95421.00;;;7.20
54746;BMP180;40640;48.130;11.356;2022-12-07T10:37:57;95416.00;;;7.20
54746;BMP180;40640;48.130;11.356;2022-12-07T10:42:02;95423.00;;;7.50
54746;BMP180;40640;48.130;11.356;2022-12-07T10:46:21;95419.00;;;7.50
54746;BMP180;40640;48.130;11.356;2022-12-07T10:50:43;95426.00;;;7.70
54746;BMP180;40640;48.130;11.356;2022-12-07T10:54:59;95411.00;;;7.70
54746;BMP180;40640;48.130;11.356;2022-12-07T10:59:23;95402.00;;;8.20
54746;BMP180;40640;48.130;11.356;2022-12-07T11:03:37;95401.00;;;8.50
54746;BMP180;40640;48.130;11.356;2022-12-07T11:07:51;95405.00;;;8.60
54746;BMP180;40640;48.130;11.356;2022-12-07T11:12:03;95407.00;;;9.40
54746;BMP180;40640;48.130;11.356;2022-12-07T11:16:27;95400.00;;;10.50
54746;BMP180;40640;48.130;11.356;2022-12-07T11:20:42;95401.00;;;11.50
54746;BMP180;40640;48.130;11.356;2022-12-07T11:24:51;95401.00;;;12.00
54746;BMP180;40640;48.130;11.356;2022-12-07T11:29:06;95392.00;;;12.10
54746;BMP180;40640;48.130;11.356;2022-12-07T11:33:18;95388.00;;;12.90
54746;BMP180;40640;48.130;11.356;2022-12-07T11:37:25;95403.00;;;12.50
54746;BMP180;40640;48.130;11.356;2022-12-07T11:41:40;95394.00;;;12.40
54746;BMP180;40640;48.130;11.356;2022-12-07T11:45:47;95385.00;;;12.50
54746;BMP180;40640;48.130;11.356;2022-12-07T11:49:53;95383.00;;;12.00
54746;BMP180;40640;48.130;11.356;2022-12-07T11:53:58;95382.00;;;11.40
54746;BMP180;40640;48.130;11.356;2022-12-07T11:58:05;95370.00;;;11.40
54746;BMP180;40640;48.130;11.356;2022-12-07T12:02:14;95362.00;;;11.10
54746;BMP180;40640;48.130;11.356;2022-12-07T12:06:20;95358.00;;;10.50
54746;BMP180;40640;48.130;11.356;2022-12-07T12:10:26;95359.00;;;10.40
54746;BMP180;40640;48.130;11.356;2022-12-07T12:14:46;95341.00;;;10.10
54746;BMP180;40640;48.130;11.356;2022-12-07T12:19:06;95349.00;;;10.20
54746;BMP180;40640;48.130;11.356;2022-12-07T12:23:15;95341.00;;;10.40
54746;BMP180;40640;48.130;11.356;2022-12-07T12:27:23;95344.00;;;10.90
54746;BMP180;40640;48.130;11.356;2022-12-07T12:31:38;95338.00;;;11.20
54746;BMP180;40640;48.130;11.356;2022-12-07T12:35:42;95335.00;;;11.10
54746;BMP180;40640;48.130;11.356;2022-12-07T12:45:03;95343.00;;;11.00
54746;BMP180;40640;48.130;11.356;2022-12-07T12:53:50;95337.00;;;11.30
54746;BMP180;40640;48.130;11.356;2022-12-07T12:58:29;95340.00;;;11.00
54746;BMP180;40640;48.130;11.356;2022-12-07T13:02:35;95326.00;;;10.50
54746;BMP180;40640;48.130;11.356;2022-12-07T13:06:39;95330.00;;;10.10
54746;BMP180;40640;48.130;11.356;2022-12-07T13:10:45;95328.00;;;9.70
54746;BMP180;40640;48.130;11.356;2022-12-07T13:14:55;95326.00;;;9.50
54746;BMP180;40640;48.130;11.356;2022-12-07T13:18:58;95322.00;;;9.40
54746;BMP180;40640;48.130;11.356;2022-12-07T13:23:01;95321.00;;;9.40
54746;BMP180;40640;48.130;11.356;2022-12-07T13:27:07;95317.00;;;9.20
54746;BMP180;40640;48.130;11.356;2022-12-07T13:31:34;95318.00;;;9.30
54746;BMP180;40640;48.130;11.356;2022-12-07T13:35:37;95314.00;;;9.50
54746;BMP180;40640;48.130;11.356;2022-12-07T13:39:45;95324.00;;;9.80
54746;BMP180;40640;48.130;11.356;2022-12-07T13:43:51;95312.00;;;10.30
54746;BMP180;40640;48.130;11.356;2022-12-07T13:47:58;95328.00;;;10.70
54746;BMP180;40640;48.130;11.356;2022-12-07T13:52:15;95315.00;;;10.70
54746;BMP180;40640;48.130;11.356;2022-12-07T13:56:21;95313.00;;;10.70
54746;BMP180;40640;48.130;11.356;2022-12-07T14:00:26;95313.00;;;10.80
54746;BMP180;40640;48.130;11.356;2022-12-07T14:04:36;95307.00;;;10.70
54746;BMP180;40640;48.130;11.356;2022-12-07T14:08:39;95305.00;;;10.60
54746;BMP180;40640;48.130;11.356;2022-12-07T14:12:42;95301.00;;;10.60
54746;BMP180;40640;48.130;11.356;2022-12-07T14:16:56;95312.00;;;10.50
54746;BMP180;40640;48.130;11.356;2022-12-07T14:21:04;95296.00;;;10.50
54746;BMP180;40640;48.130;11.356;2022-12-07T14:25:20;95298.00;;;10.30
54746;BMP180;40640;48.130;11.356;2022-12-07T14:29:32;95303.00;;;10.10
54746;BMP180;40640;48.130;11.356;2022-12-07T14:33:35;95301.00;;;9.90
54746;BMP180;40640;48.130;11.356;2022-12-07T14:37:44;95294.00;;;9.80
54746;BMP180;40640;48.130;11.356;2022-12-07T14:41:47;95283.00;;;9.60
54746;BMP180;40640;48.130;11.356;2022-12-07T14:45:52;95294.00;;;9.40
54746;BMP180;40640;48.130;11.356;2022-12-07T14:49:55;95288.00;;;9.20
54746;BMP180;40640;48.130;11.356;2022-12-07T14:54:05;95292.00;;;8.90
54746;BMP180;40640;48.130;11.356;2022-12-07T14:58:12;95294.00;;;8.60
54746;BMP180;40640;48.130;11.356;2022-12-07T15:02:16;95289.00;;;8.50
54746;BMP180;40640;48.130;11.356;2022-12-07T15:06:18;95284.00;;;8.20
54746;BMP180;40640;48.130;11.356;2022-12-07T15:10:24;95288.00;;;8.00
54746;BMP180;40640;48.130;11.356;2022-12-07T15:14:30;95291.00;;;7.90
54746;BMP180;40640;48.130;11.356;2022-12-07T15:18:33;95294.00;;;7.80
54746;BMP180;40640;48.130;11.356;2022-12-07T15:22:36;95292.00;;;7.70
54746;BMP180;40640;48.130;11.356;2022-12-07T15:26:40;95293.00;;;7.60
54746;BMP180;40640;48.130;11.356;2022-12-07T15:30:44;95291.00;;;7.40
54746;BMP180;40640;48.130;11.356;2022-12-07T15:34:47;95294.00;;;7.30
54746;BMP180;40640;48.130;11.356;2022-12-07T15:38:51;95296.00;;;7.10
54746;BMP180;40640;48.130;11.356;2022-12-07T15:43:15;95288.00;;;7.00
54746;BMP180;40640;48.130;11.356;2022-12-07T15:47:34;95281.00;;;6.70
54746;BMP180;40640;48.130;11.356;2022-12-07T15:51:58;95289.00;;;6.70
54746;BMP180;40640;48.130;11.356;2022-12-07T15:56:01;95285.00;;;6.60
54746;BMP180;40640;48.130;11.356;2022-12-07T16:00:07;95282.00;;;6.70
54746;BMP180;40640;48.130;11.356;2022-12-07T16:04:11;95276.00;;;6.40
54746;BMP180;40640;48.130;11.356;2022-12-07T16:08:14;95278.00;;;6.40
54746;BMP180;40640;48.130;11.356;2022-12-07T16:12:17;95277.00;;;6.30
54746;BMP180;40640;48.130;11.356;2022-12-07T16:16:21;95280.00;;;6.40
54746;BMP180;40640;48.130;11.356;2022-12-07T16:20:24;95282.00;;;6.40
54746;BMP180;40640;48.130;11.356;2022-12-07T16:24:27;95279.00;;;6.20
54746;BMP180;40640;48.130;11.356;2022-12-07T16:28:30;95284.00;;;6.20
54746;BMP180;40640;48.130;11.356;2022-12-07T16:32:34;95259.00;;;6.10
54746;BMP180;40640;48.130;11.356;2022-12-07T16:36:37;95268.00;;;6.00
54746;BMP180;40640;48.130;11.356;2022-12-07T16:40:59;95268.00;;;5.90
54746;BMP180;40640;48.130;11.356;2022-12-07T16:45:03;95265.00;;;5.90
54746;BMP180;40640;48.130;11.356;2022-12-07T16:49:11;95272.00;;;5.80
54746;BMP180;40640;48.130;11.356;2022-12-07T16:53:14;95255.00;;;5.70
54746;BMP180;40640;48.130;11.356;2022-12-07T16:57:18;95261.00;;;5.70
54746;BMP180;40640;48.130;11.356;2022-12-07T17:01:24;95259.00;;;5.70
54746;BMP180;40640;48.130;11.356;2022-12-07T17:05:30;95243.00;;;5.50
54746;BMP180;40640;48.130;11.356;2022-12-07T17:09:34;95252.00;;;5.40
54746;BMP180;40640;48.130;11.356;2022-12-07T17:13:36;95247.00;;;5.40
54746;BMP180;40640;48.130;11.356;2022-12-07T17:17:57;95238.00;;;5.40
54746;BMP180;40640;48.130;11.356;2022-12-07T17:22:02;95246.00;;;5.30
54746;BMP180;40640;48.130;11.356;2022-12-07T17:26:05;95243.00;;;5.40
54746;BMP180;40640;48.130;11.356;2022-12-07T17:30:09;95241.00;;;5.10
54746;BMP180;40640;48.130;11.356;2022-12-07T17:34:14;95237.00;;;5.00
54746;BMP180;40640;48.130;11.356;2022-12-07T17:38:18;95260.00;;;5.50
54746;BMP180;40640;48.130;11.356;2022-12-07T17:42:21;95237.00;;;5.00
54746;BMP180;40640;48.130;11.356;2022-12-07T17:46:40;95250.00;;;5.10
54746;BMP180;40640;48.130;11.356;2022-12-07T17:50:43;95244.00;;;4.80
54746;BMP180;40640;48.130;11.356;2022-12-07T17:55:06;95238.00;;;5.00
54746;BMP180;40640;48.130;11.356;2022-12-07T17:59:09;95221.00;;;4.40
54746;BMP180;40640;48.130;11.356;2022-12-07T18:03:12;95231.00;;;4.60
54746;BMP180;40640;48.130;11.356;2022-12-07T18:07:15;95237.00;;;4.60
54746;BMP180;40640;48.130;11.356;2022-12-07T18:11:19;95235.00;;;4.70
54746;BMP180;40640;48.130;11.356;2022-12-07T18:15:22;95237.00;;;4.90
54746;BMP180;40640;48.130;11.356;2022-12-07T18:19:25;95237.00;;;4.70
54746;BMP180;40640;48.130;11.356;2022-12-07T18:23:27;95247.00;;;4.80
54746;BMP180;40640;48.130;11.356;2022-12-07T18:27:31;95244.00;;;5.00
54746;BMP180;40640;48.130;11.356;2022-12-07T18:31:35;95241.00;;;4.80
54746;BMP180;40640;48.130;11.356;2022-12-07T18:35:38;95236.00;;;4.80
54746;BMP180;40640;48.130;11.356;2022-12-07T18:39:40;95239.00;;;4.70
54746;BMP180;40640;48.130;11.356;2022-12-07T18:43:45;95243.00;;;4.70
54746;BMP180;40640;48.130;11.356;2022-12-07T18:47:48;95233.00;;;4.70
54746;BMP180;40640;48.130;11.356;2022-12-07T18:51:51;95228.00;;;4.70
54746;BMP180;40640;48.130;11.356;2022-12-07T18:56:01;95239.00;;;4.80
54746;BMP180;40640;48.130;11.356;2022-12-07T19:00:06;95239.00;;;4.80
54746;BMP180;40640;48.130;11.356;2022-12-07T19:04:09;95225.00;;;4.90
54746;BMP180;40640;48.130;11.356;2022-12-07T19:08:12;95238.00;;;4.90
54746;BMP180;40640;48.130;11.356;2022-12-07T19:12:15;95241.00;;;5.00
54746;BMP180;40640;48.130;11.356;2022-12-07T19:16:19;95233.00;;;4.90
54746;BMP180;40640;48.130;11.356;2022-12-07T19:20:23;95226.00;;;4.90
54746;BMP180;40640;48.130;11.356;2022-12-07T19:24:26;95216.00;;;4.90
54746;BMP180;40640;48.130;11.356;2022-12-07T19:28:29;95223.00;;;4.80
54746;BMP180;40640;48.130;11.356;2022-12-07T19:32:33;95213.00;;;4.80
54746;BMP180;40640;48.130;11.356;2022-12-07T19:36:36;95214.00;;;4.90
54746;BMP180;40640;48.130;11.356;2022-12-07T19:40:39;95214.00;;;4.90
54746;BMP180;40640;48.130;11.356;2022-12-07T19:44:42;95206.00;;;4.90
54746;BMP180;40640;48.130;11.356;2022-12-07T19:48:46;95190.00;;;4.90
54746;BMP180;40640;48.130;11.356;2022-12-07T19:52:49;95184.00;;;5.00
54746;BMP180;40640;48.130;11.356;2022-12-07T19:56:52;95196.00;;;5.20
54746;BMP180;40640;48.130;11.356;2022-12-07T20:01:01;95212.00;;;5.50
54746;BMP180;40640;48.130;11.356;2022-12-07T20:05:06;95184.00;;;4.80
54746;BMP180;40640;48.130;11.356;2022-12-07T20:09:09;95183.00;;;4.90
54746;BMP180;40640;48.130;11.356;2022-12-07T20:13:12;95178.00;;;4.80
54746;BMP180;40640;48.130;11.356;2022-12-07T20:17:32;95189.00;;;4.80
54746;BMP180;40640;48.130;11.356;2022-12-07T20:21:37;95187.00;;;4.70
54746;BMP180;40640;48.130;11.356;2022-12-07T20:25:40;95184.00;;;4.70
54746;BMP180;40640;48.130;11.356;2022-12-07T20:29:42;95192.00;;;4.90
54746;BMP180;40640;48.130;11.356;2022-12-07T20:33:46;95172.00;;;4.70
54746;BMP180;40640;48.130;11.356;2022-12-07T20:37:51;95178.00;;;4.60
54746;BMP180;40640;48.130;11.356;2022-12-07T20:41:53;95180.00;;;4.60
54746;BMP180;40640;48.130;11.356;2022-12-07T20:46:13;95172.00;;;4.50
54746;BMP180;40640;48.130;11.356;2022-12-07T20:50:16;95173.00;;;4.40
54746;BMP180;40640;48.130;11.356;2022-12-07T20:54:20;95175.00;;;4.70
54746;BMP180;40640;48.130;11.356;2022-12-07T20:58:23;95171.00;;;4.50
54746;BMP180;40640;48.130;11.356;2022-12-07T21:02:29;95162.00;;;4.50
54746;BMP180;40640;48.130;11.356;2022-12-07T21:06:32;95164.00;;;4.50
54746;BMP180;40640;48.130;11.356;2022-12-07T21:10:36;95164.00;;;4.40
54746;BMP180;40640;48.130;11.356;2022-12-07T21:14:40;95159.00;;;4.50
54746;BMP180;40640;48.130;11.356;2022-12-07T21:18:43;95165.00;;;4.60
54746;BMP180;40640;48.130;11.356;2022-12-07T21:22:48;95167.00;;;4.60
54746;BMP180;40640;48.130;11.356;2022-12-07T21:26:52;95169.00;;;4.80
54746;BMP180;40640;48.130;11.356;2022-12-07T21:30:55;95171.00;;;4.90
54746;BMP180;40640;48.130;11.356;2022-12-07T21:35:14;95152.00;;;4.80
54746;BMP180;40640;48.130;11.356;2022-12-07T21:39:17;95156.00;;;4.80
54746;BMP180;40640;48.130;11.356;2022-12-07T21:43:21;95147.00;;;4.80
54746;BMP180;40640;48.130;11.356;2022-12-07T21:47:24;95148.00;;;4.80
54746;BMP180;40640;48.130;11.356;2022-12-07T21:51:28;95142.00;;;4.80
54746;BMP180;40640;48.130;11.356;2022-12-07T21:55:31;95144.00;;;4.80
54746;BMP180;40640;48.130;11.356;2022-12-07T21:59:35;95138.00;;;4.70
54746;BMP180;40640;48.130;11.356;2022-12-07T22:03:39;95145.00;;;4.60
54746;BMP180;40640;48.130;11.356;2022-12-07T22:07:42;95149.00;;;5.00
54746;BMP180;40640;48.130;11.356;2022-12-07T22:11:45;95145.00;;;4.90
54746;BMP180;40640;48.130;11.356;2022-12-07T22:15:49;95127.00;;;4.60
54746;BMP180;40640;48.130;11.356;2022-12-07T22:19:52;95123.00;;;4.50
54746;BMP180;40640;48.130;11.356;2022-12-07T22:23:55;95130.00;;;4.60
54746;BMP180;40640;48.130;11.356;2022-12-07T22:27:58;95122.00;;;4.60
54746;BMP180;40640;48.130;11.356;2022-12-07T22:32:02;95125.00;;;4.40
54746;BMP180;40640;48.130;11.356;2022-12-07T22:36:25;95124.00;;;4.40
54746;BMP180;40640;48.130;11.356;2022-12-07T22:40:28;95124.00;;;4.50
54746;BMP180;40640;48.130;11.356;2022-12-07T22:44:31;95120.00;;;5.10
54746;BMP180;40640;48.130;11.356;2022-12-07T22:48:36;95102.00;;;4.60
54746;BMP180;40640;48.130;11.356;2022-12-07T22:52:38;95122.00;;;4.80
54746;BMP180;40640;48.130;11.356;2022-12-07T22:56:42;95115.00;;;4.60
54746;BMP180;40640;48.130;11.356;2022-12-07T23:00:45;95114.00;;;4.70
54746;BMP180;40640;48.130;11.356;2022-12-07T23:04:49;95100.00;;;4.50
54746;BMP180;40640;48.130;11.356;2022-12-07T23:08:52;95099.00;;;4.40
54746;BMP180;40640;48.130;11.356;2022-12-07T23:12:57;95096.00;;;4.50
54746;BMP180;40640;48.130;11.356;2022-12-07T23:17:17;95100.00;;;4.50
54746;BMP180;40640;48.130;11.356;2022-12-07T23:21:21;95091.00;;;4.50
54746;BMP180;40640;48.130;11.356;2022-12-07T23:25:24;95092.00;;;4.40
54746;BMP180;40640;48.130;11.356;2022-12-07T23:29:27;95087.00;;;4.40
54746;BMP180;40640;48.130;11.356;2022-12-07T23:33:29;95083.00;;;4.60
54746;BMP180;40640;48.130;11.356;2022-12-07T23:37:34;95070.00;;;4.60
54746;BMP180;40640;48.130;11.356;2022-12-07T23:41:36;95063.00;;;4.50
54746;BMP180;40640;48.130;11.356;2022-12-07T23:45:44;95057.00;;;4.50
54746;BMP180;40640;48.130;11.356;2022-12-07T23:49:46;95058.00;;;4.50